Time;durP1;ratioP1;P1;durP2;ratioP2;P2;SDS_P1;SDS_P2;PMS_P1;PMS_P2;Temp;Humidity;BMP_temperature;BMP_pressure;BME280_temperature;BME280_humidity;BME280_pressure;Samples;Min_cycle;Max_cycle;Signal;HPM_P1;HPM_P2
2022/12/23 00:01:13;;;;;;;282.65;47.15;;;7.50;99.90;;;;;;5997351;23;20039;-81
2022/12/23 00:03:39;;;;;;;460.92;55.58;;;7.50;99.90;;;;;;5998651;23;20046;-81
2022/12/23 00:06:10;;;;;;;136.27;39.25;;;7.40;99.90;;;;;;6022940;23;20484;-81
2022/12/23 00:08:37;;;;;;;120.05;39.00;;;7.40;99.90;;;;;;5998502;23;20234;-81
2022/12/23 00:11:14;;;;;;;157.35;41.10;;;7.50;99.90;;;;;;6000215;23;20026;-81
2022/12/23 00:16:27;;;;;;;223.27;45.00;;;7.40;99.90;;;;;;5977273;23;20111;-81
2022/12/23 00:18:53;;;;;;;144.98;40.80;;;7.40;99.90;;;;;;5998817;23;20015;-82
2022/12/23 00:21:19;;;;;;;206.50;42.17;;;7.40;99.90;;;;;;5999044;23;20158;-82
2022/12/23 00:23:47;;;;;;;134.60;38.03;;;7.40;99.90;;;;;;5999237;23;20015;-81
2022/12/23 00:26:22;;;;;;;329.92;49.28;;;7.40;99.90;;;;;;5999000;23;20023;-81
2022/12/23 00:28:48;;;;;;;;;;;7.40;99.90;;;;;;6022178;23;20023;-82
2022/12/23 00:31:17;;;;;;;181.35;40.60;;;7.40;99.90;;;;;;6020782;23;19922;-81
2022/12/23 00:33:45;;;;;;;93.30;33.72;;;7.40;99.90;;;;;;5997095;23;20019;-81
2022/12/23 00:36:18;;;;;;;85.45;32.03;;;7.40;99.90;;;;;;5999733;23;20289;-81
2022/12/23 00:44:12;;;;;;;167.60;36.85;;;7.30;99.90;;;;;;6022235;23;20098;-81
2022/12/23 00:46:37;;;;;;;251.98;42.63;;;7.30;99.90;;;;;;5997735;23;20118;-81
2022/12/23 00:51:47;;;;;;;271.55;44.97;;;7.30;99.90;;;;;;6022025;23;20019;-81
2022/12/23 00:54:13;;;;;;;393.50;50.97;;;7.30;99.90;;;;;;5998080;23;20018;-81
2022/12/23 00:56:39;;;;;;;299.83;47.72;;;7.30;99.90;;;;;;5997620;23;20071;-81
2022/12/23 00:59:05;;;;;;;423.23;48.20;;;7.30;99.90;;;;;;5997444;23;20399;-81
2022/12/23 01:07:01;;;;;;;205.45;41.08;;;7.40;99.90;;;;;;6022270;23;20025;-81
2022/12/23 01:09:27;;;;;;;198.32;43.40;;;7.40;99.90;;;;;;5997217;23;20115;-81
2022/12/23 01:11:53;;;;;;;253.73;43.58;;;7.40;99.90;;;;;;6021711;23;20061;-82
2022/12/23 01:14:20;;;;;;;226.00;42.95;;;7.40;99.90;;;;;;6021921;23;20106;-81
2022/12/23 01:16:46;;;;;;;131.50;36.95;;;7.40;99.90;;;;;;5996609;23;20150;-81
2022/12/23 01:19:11;;;;;;;209.80;42.05;;;7.40;99.90;;;;;;6021322;23;20101;-81
2022/12/23 01:21:37;;;;;;;200.20;42.85;;;7.50;99.90;;;;;;6021856;23;20026;-81
2022/12/23 01:24:03;;;;;;;141.57;38.65;;;7.40;99.90;;;;;;5997719;23;20075;-82
2022/12/23 01:26:29;;;;;;;150.23;38.88;;;7.40;99.90;;;;;;5998077;23;20041;-81
2022/12/23 01:28:58;;;;;;;173.32;39.70;;;7.40;99.90;;;;;;5997467;23;20086;-81
2022/12/23 01:31:25;;;;;;;226.02;40.45;;;7.40;99.90;;;;;;6020462;23;20295;-82
2022/12/23 01:33:52;;;;;;;110.80;33.28;;;7.40;99.90;;;;;;6021500;23;20012;-81
2022/12/23 01:36:18;;;;;;;172.10;39.22;;;7.50;99.90;;;;;;6021476;23;20019;-82
2022/12/23 01:38:44;;;;;;;131.10;35.97;;;7.50;99.90;;;;;;5997452;23;20042;-81
2022/12/23 01:44:45;;;;;;;107.45;32.78;;;7.50;99.90;;;;;;6021006;23;20362;-81
2022/12/23 01:47:43;;;;;;;152.32;36.97;;;7.40;99.90;;;;;;6021265;23;20028;-81
2022/12/23 01:50:15;;;;;;;212.75;42.63;;;7.50;99.90;;;;;;6012868;23;20023;-81
2022/12/23 01:52:50;;;;;;;130.45;35.72;;;7.50;99.90;;;;;;6020523;23;20015;-81
2022/12/23 01:55:19;;;;;;;227.70;45.90;;;7.50;99.90;;;;;;6021655;23;20461;-81
2022/12/23 01:57:46;;;;;;;157.52;39.53;;;7.50;99.90;;;;;;5997244;23;20011;-80
2022/12/23 02:05:44;;;;;;;150.35;37.70;;;7.50;99.90;;;;;;6021652;23;20027;-81
2022/12/23 02:11:35;;;;;;;140.60;36.75;;;7.50;99.90;;;;;;6021410;23;20393;-82
2022/12/23 02:17:34;;;;;;;134.85;38.63;;;7.50;99.90;;;;;;6021709;23;20401;-81
2022/12/23 02:20:18;;;;;;;161.05;39.15;;;7.50;99.90;;;;;;5996553;23;20023;-81
2022/12/23 02:22:52;;;;;;;197.52;40.00;;;7.50;99.90;;;;;;6021427;23;20015;-81
2022/12/23 02:25:56;;;;;;;160.60;38.47;;;7.50;99.90;;;;;;6020931;23;20222;-81
2022/12/23 02:28:43;;;;;;;328.58;47.30;;;7.50;99.90;;;;;;5957763;23;20059;-80
2022/12/23 02:31:52;;;;;;;179.68;38.80;;;7.50;99.90;;;;;;5996004;23;20128;-81
2022/12/23 02:34:35;;;;;;;144.80;38.92;;;7.50;99.90;;;;;;5997511;23;20023;-81
2022/12/23 02:37:18;;;;;;;263.15;47.35;;;7.50;99.90;;;;;;5997902;23;20114;-81
2022/12/23 02:39:55;;;;;;;198.02;40.35;;;7.50;99.90;;;;;;5997617;23;20110;-81
2022/12/23 02:42:32;;;;;;;208.02;42.47;;;7.60;99.90;;;;;;5997337;23;20094;-81
2022/12/23 02:45:13;;;;;;;200.82;41.65;;;7.50;99.90;;;;;;6019249;23;20019;-81
2022/12/23 02:47:53;;;;;;;218.68;41.80;;;7.50;99.90;;;;;;6021197;23;20034;-81
2022/12/23 02:50:27;;;;;;;157.88;40.88;;;7.50;99.90;;;;;;5997702;23;20051;-81
2022/12/23 02:52:55;;;;;;;154.63;37.92;;;7.60;99.90;;;;;;5997218;23;20015;-81
2022/12/23 02:55:29;;;;;;;177.38;42.08;;;7.60;99.90;;;;;;6021138;23;20464;-82
2022/12/23 02:57:56;;;;;;;192.93;41.97;;;7.60;99.90;;;;;;6020444;23;20019;-81
2022/12/23 03:00:22;;;;;;;158.10;38.95;;;7.50;99.90;;;;;;5996360;23;20027;-81
2022/12/23 03:02:49;;;;;;;164.23;38.90;;;7.50;99.90;;;;;;6021081;23;20107;-81
2022/12/23 03:05:24;;;;;;;154.48;39.63;;;7.50;99.90;;;;;;6022845;23;20026;-81
2022/12/23 03:07:53;;;;;;;140.15;36.85;;;7.50;99.90;;;;;;6023099;23;20365;-81
2022/12/23 03:10:29;;;;;;;153.00;38.67;;;7.60;99.90;;;;;;5998452;23;20082;-81
2022/12/23 03:13:13;;;;;;;189.23;41.38;;;7.50;99.90;;;;;;6020723;23;20019;-81
2022/12/23 03:15:48;;;;;;;150.43;38.95;;;7.60;99.90;;;;;;6022412;23;20050;-81
2022/12/23 03:18:50;;;;;;;172.63;42.58;;;7.60;99.90;;;;;;6022113;23;20023;-81
2022/12/23 03:21:29;;;;;;;250.68;46.88;;;7.50;99.90;;;;;;6023160;23;20102;-81
2022/12/23 03:24:16;;;;;;;151.70;38.50;;;7.50;99.90;;;;;;6022699;23;20023;-81
2022/12/23 03:26:51;;;;;;;147.88;39.88;;;7.60;99.90;;;;;;6023222;23;20075;-81
2022/12/23 03:29:37;;;;;;;180.68;40.83;;;7.50;99.90;;;;;;6022262;23;20015;-81
2022/12/23 03:32:05;;;;;;;194.50;42.20;;;7.50;99.90;;;;;;5999147;23;20015;-81
2022/12/23 03:34:36;;;;;;;140.52;37.78;;;7.50;99.90;;;;;;5998433;23;20019;-81
2022/12/23 03:37:06;;;;;;;150.13;37.85;;;7.50;99.90;;;;;;5998311;23;20103;-81
2022/12/23 03:39:44;;;;;;;143.32;36.78;;;7.50;99.90;;;;;;5998243;23;20019;-81
2022/12/23 03:42:22;;;;;;;137.57;36.55;;;7.50;99.90;;;;;;5998665;23;20055;-81
2022/12/23 03:44:49;;;;;;;152.50;38.28;;;7.50;99.90;;;;;;5996878;23;20023;-81
2022/12/23 03:47:44;;;;;;;147.10;39.35;;;7.50;99.90;;;;;;5997747;23;20503;-81
2022/12/23 03:50:16;;;;;;;140.43;37.17;;;7.50;99.90;;;;;;5995085;23;20019;-81
2022/12/23 03:52:52;;;;;;;144.02;37.53;;;7.50;99.90;;;;;;6021471;23;20035;-81
2022/12/23 03:55:25;;;;;;;139.25;36.42;;;7.50;99.90;;;;;;5998521;23;20023;-81
2022/12/23 03:58:06;;;;;;;148.60;36.70;;;7.50;99.90;;;;;;6020710;23;20019;-82
2022/12/23 04:00:37;;;;;;;123.78;33.35;;;7.50;99.90;;;;;;5997553;23;20321;-81
2022/12/23 04:03:44;;;;;;;146.13;36.15;;;7.40;99.90;;;;;;5974101;23;20129;-81
2022/12/23 04:06:14;;;;;;;130.75;36.40;;;7.50;99.90;;;;;;5997853;23;20031;-81
2022/12/23 04:08:42;;;;;;;140.52;35.25;;;7.40;99.90;;;;;;5998653;23;20123;-81
2022/12/23 04:11:08;;;;;;;212.10;39.60;;;7.40;99.90;;;;;;5998111;23;20083;-81
2022/12/23 04:13:34;;;;;;;143.43;35.75;;;7.40;99.90;;;;;;5998220;23;20015;-81
2022/12/23 04:16:01;;;;;;;170.02;37.70;;;7.40;99.90;;;;;;5997191;23;20022;-81
2022/12/23 04:18:28;;;;;;;170.48;38.13;;;7.40;99.90;;;;;;5973073;23;20019;-81
2022/12/23 04:20:53;;;;;;;165.48;37.55;;;7.40;99.90;;;;;;5975790;23;20019;-81
2022/12/23 04:23:19;;;;;;;137.68;35.22;;;7.40;99.90;;;;;;5974288;23;20389;-81
2022/12/23 04:25:47;;;;;;;134.77;34.45;;;7.40;99.90;;;;;;5974867;23;20102;-81
2022/12/23 04:28:13;;;;;;;132.93;32.00;;;7.40;99.90;;;;;;5999027;23;20051;-81
2022/12/23 04:30:39;;;;;;;129.32;33.28;;;7.40;99.90;;;;;;5998145;23;20392;-82
2022/12/23 04:33:04;;;;;;;126.97;33.67;;;7.40;99.90;;;;;;5973603;23;20546;-82
2022/12/23 04:35:30;;;;;;;125.25;34.08;;;7.40;99.90;;;;;;5998428;23;20011;-81
2022/12/23 04:37:56;;;;;;;165.60;33.83;;;7.40;99.90;;;;;;5997076;23;20299;-80
2022/12/23 04:40:21;;;;;;;134.13;33.15;;;7.30;99.90;;;;;;5975153;23;20050;-81
2022/12/23 04:42:47;;;;;;;127.28;33.75;;;7.30;99.90;;;;;;5974603;23;20118;-81
2022/12/23 04:45:13;;;;;;;124.20;34.55;;;7.30;99.90;;;;;;5997204;23;20023;-81
2022/12/23 04:47:39;;;;;;;161.55;35.15;;;7.40;99.90;;;;;;5997323;23;20081;-81
2022/12/23 04:50:06;;;;;;;175.18;36.00;;;7.40;99.90;;;;;;5997203;23;20307;-81
2022/12/23 04:52:31;;;;;;;171.40;35.17;;;7.40;99.90;;;;;;5997527;23;20076;-81
2022/12/23 04:54:57;;;;;;;158.40;37.03;;;7.40;99.90;;;;;;5974138;23;20386;-81
2022/12/23 04:57:22;;;;;;;139.25;33.97;;;7.40;99.90;;;;;;5974600;23;20016;-81
2022/12/23 04:59:48;;;;;;;132.65;34.53;;;7.30;99.90;;;;;;5974134;23;20402;-80
2022/12/23 05:02:14;;;;;;;161.02;35.75;;;7.30;99.90;;;;;;5997093;23;20341;-81
2022/12/23 05:04:39;;;;;;;164.45;35.92;;;7.30;99.90;;;;;;5973762;23;20023;-82
2022/12/23 05:07:05;;;;;;;312.27;45.30;;;7.30;99.90;;;;;;5973817;23;20554;-81
2022/12/23 05:09:31;;;;;;;195.18;38.08;;;7.30;99.90;;;;;;5997881;23;20347;-81
2022/12/23 05:11:56;;;;;;;179.73;37.85;;;7.20;99.90;;;;;;5998271;23;20026;-81
2022/12/23 05:14:22;;;;;;;215.35;38.28;;;7.20;99.90;;;;;;5997520;23;20051;-81
2022/12/23 05:16:48;;;;;;;185.10;34.92;;;7.20;99.90;;;;;;5973753;23;20046;-81
2022/12/23 05:19:13;;;;;;;154.50;35.08;;;7.30;99.90;;;;;;5974440;23;20135;-81
2022/12/23 05:21:39;;;;;;;169.30;35.45;;;7.20;99.90;;;;;;5997666;23;20019;-81
2022/12/23 05:24:05;;;;;;;175.63;35.15;;;7.20;99.90;;;;;;5974039;23;20470;-82
2022/12/23 05:26:30;;;;;;;174.35;34.53;;;7.20;99.90;;;;;;5975027;23;20434;-81
2022/12/23 05:28:56;;;;;;;205.82;35.13;;;7.20;99.90;;;;;;5997691;23;20082;-81
2022/12/23 05:31:24;;;;;;;320.13;40.80;;;7.20;99.90;;;;;;5973271;23;20027;-81
2022/12/23 05:33:50;;;;;;;221.23;36.60;;;7.20;99.90;;;;;;5972108;23;20019;-81
2022/12/23 05:36:15;;;;;;;307.63;39.05;;;7.10;99.90;;;;;;5997209;23;20017;-81
2022/12/23 05:38:41;;;;;;;301.17;36.65;;;7.20;99.90;;;;;;5973971;23;20015;-81
2022/12/23 05:41:07;;;;;;;445.40;43.65;;;7.20;99.90;;;;;;5973284;23;20011;-81
2022/12/23 05:43:32;;;;;;;374.63;38.97;;;7.20;99.90;;;;;;5996300;23;20095;-81
2022/12/23 05:45:58;;;;;;;445.98;43.65;;;7.20;99.90;;;;;;5971887;23;20015;-82
2022/12/23 05:48:24;;;;;;;368.23;42.88;;;7.20;99.90;;;;;;5996968;23;20030;-82
2022/12/23 05:50:51;;;;;;;224.18;36.50;;;7.20;99.90;;;;;;5973597;23;20027;-81
2022/12/23 05:53:17;;;;;;;166.02;30.88;;;7.20;99.90;;;;;;5973259;23;20739;-81
2022/12/23 05:55:42;;;;;;;137.55;32.10;;;7.20;99.90;;;;;;5998308;23;20011;-82
2022/12/23 05:58:08;;;;;;;159.05;32.10;;;7.20;99.90;;;;;;5973058;23;20019;-81
2022/12/23 06:00:34;;;;;;;122.00;29.02;;;7.20;99.90;;;;;;5995983;23;20572;-82
2022/12/23 06:03:00;;;;;;;153.32;30.73;;;7.20;99.90;;;;;;5995219;23;20122;-81
2022/12/23 06:05:25;;;;;;;122.80;27.88;;;7.20;99.90;;;;;;6020773;23;20023;-81
2022/12/23 06:07:51;;;;;;;206.85;34.05;;;7.20;99.90;;;;;;5997616;23;20019;-81
2022/12/23 06:10:19;;;;;;;181.52;33.55;;;7.10;99.90;;;;;;5997361;23;20026;-82
2022/12/23 06:12:45;;;;;;;259.67;36.05;;;7.10;99.90;;;;;;6021148;23;20079;-81
2022/12/23 06:15:11;;;;;;;323.67;38.10;;;7.10;99.90;;;;;;6019806;23;20015;-81
2022/12/23 06:17:37;;;;;;;402.58;41.97;;;7.10;99.90;;;;;;6020904;23;20389;-82
2022/12/23 06:20:03;;;;;;;446.00;42.35;;;7.00;99.90;;;;;;6020777;23;20034;-81
2022/12/23 06:22:30;;;;;;;411.48;37.95;;;7.00;99.90;;;;;;5997571;23;20020;-81
2022/12/23 06:24:56;;;;;;;544.17;51.72;;;6.90;99.90;;;;;;5997024;23;20368;-81
2022/12/23 06:27:21;;;;;;;569.38;54.17;;;6.90;99.90;;;;;;5997366;23;20023;-81
2022/12/23 06:29:47;;;;;;;605.00;57.70;;;6.90;99.90;;;;;;6018872;23;20019;-81
2022/12/23 06:32:13;;;;;;;655.22;56.70;;;6.80;99.90;;;;;;6020847;23;20333;-81
2022/12/23 06:34:38;;;;;;;593.40;48.35;;;6.80;99.90;;;;;;5996479;23;20235;-80
2022/12/23 06:37:04;;;;;;;551.25;43.78;;;6.70;99.90;;;;;;5997027;23;20508;-81
2022/12/23 06:39:30;;;;;;;607.95;52.15;;;6.70;99.90;;;;;;6020812;23;20023;-81
2022/12/23 06:41:55;;;;;;;594.15;53.50;;;6.70;99.90;;;;;;6019547;23;20029;-81
2022/12/23 06:44:21;;;;;;;572.63;46.45;;;6.70;99.90;;;;;;5997312;23;20015;-82
2022/12/23 06:46:46;;;;;;;590.13;46.10;;;6.70;99.90;;;;;;6019144;23;20019;-82
2022/12/23 06:49:12;;;;;;;572.25;51.25;;;6.70;99.90;;;;;;5996269;23;20069;-81
2022/12/23 06:51:38;;;;;;;569.13;47.47;;;6.70;99.90;;;;;;5998732;23;20019;-81
2022/12/23 06:54:03;;;;;;;536.42;45.53;;;6.60;99.90;;;;;;5997721;23;20170;-81
2022/12/23 06:56:29;;;;;;;528.03;48.80;;;6.60;99.90;;;;;;6021017;23;20019;-81
2022/12/23 06:58:55;;;;;;;485.80;45.38;;;6.60;99.90;;;;;;6019568;23;20015;-81
2022/12/23 07:01:21;;;;;;;497.08;44.92;;;6.70;99.90;;;;;;5995556;23;20098;-81
2022/12/23 07:03:48;;;;;;;431.75;35.33;;;6.60;99.90;;;;;;6020013;23;20099;-82
2022/12/23 07:06:14;;;;;;;455.05;43.92;;;6.60;99.90;;;;;;6021496;23;20094;-81
2022/12/23 07:08:39;;;;;;;469.33;42.58;;;6.60;99.90;;;;;;5997657;23;20358;-81
2022/12/23 07:11:07;;;;;;;424.38;37.28;;;6.60;99.90;;;;;;5997045;23;20035;-82
2022/12/23 07:13:33;;;;;;;457.15;41.50;;;6.60;99.90;;;;;;6021459;23;20435;-82
2022/12/23 07:16:05;;;;;;;499.42;43.42;;;6.70;99.90;;;;;;6020316;23;20020;-81
2022/12/23 07:18:31;;;;;;;496.45;43.78;;;6.60;99.90;;;;;;6019971;23;20272;-82
2022/12/23 07:20:59;;;;;;;506.15;39.15;;;6.60;99.90;;;;;;5997374;23;20062;-81
2022/12/23 07:23:25;;;;;;;532.75;41.45;;;6.60;99.90;;;;;;5997402;23;20440;-81
2022/12/23 07:25:51;;;;;;;461.58;38.33;;;6.60;99.90;;;;;;6020203;23;20110;-81
2022/12/23 07:28:16;;;;;;;488.05;40.17;;;6.60;99.90;;;;;;6020071;23;20255;-81
2022/12/23 07:30:42;;;;;;;400.33;38.28;;;6.60;99.90;;;;;;5995392;23;20102;-81
2022/12/23 07:33:08;;;;;;;448.15;36.42;;;6.60;99.90;;;;;;6019983;23;20474;-82
2022/12/23 07:35:33;;;;;;;481.88;40.75;;;6.60;99.90;;;;;;6021847;23;20205;-81
2022/12/23 07:37:59;;;;;;;397.05;35.75;;;6.50;99.90;;;;;;5997182;23;20011;-81
2022/12/23 07:40:26;;;;;;;309.08;29.27;;;6.60;99.90;;;;;;6023239;23;20075;-81
2022/12/23 07:42:57;;;;;;;356.42;31.85;;;6.60;99.90;;;;;;6021683;23;20457;-81
2022/12/23 07:45:23;;;;;;;314.33;37.20;;;6.60;99.90;;;;;;5997904;23;20023;-81
2022/12/23 07:47:53;;;;;;;288.52;30.23;;;6.60;99.90;;;;;;6022791;23;20310;-81
2022/12/23 07:50:20;;;;;;;309.33;30.67;;;6.60;99.90;;;;;;6023554;23;20023;-81
2022/12/23 07:52:45;;;;;;;296.70;29.58;;;6.60;99.90;;;;;;6000340;23;20408;-81
2022/12/23 07:55:11;;;;;;;310.23;35.08;;;6.60;99.90;;;;;;5999774;23;20094;-81
2022/12/23 07:57:37;;;;;;;281.52;29.55;;;6.60;99.90;;;;;;6024295;23;20019;-81
2022/12/23 08:00:05;;;;;;;220.50;27.75;;;6.60;99.90;;;;;;6023064;23;20043;-81
2022/12/23 08:02:31;;;;;;;262.05;32.20;;;6.70;99.90;;;;;;5999667;23;20152;-81
2022/12/23 08:04:57;;;;;;;282.90;29.02;;;6.70;99.90;;;;;;5999314;23;20015;-82
2022/12/23 08:07:23;;;;;;;295.77;33.47;;;6.70;99.90;;;;;;6024707;23;20391;-81
2022/12/23 08:09:48;;;;;;;222.70;28.30;;;6.70;99.90;;;;;;6024291;23;20082;-81
2022/12/23 08:12:15;;;;;;;161.98;25.92;;;6.70;99.90;;;;;;6001510;23;20038;-81
2022/12/23 08:14:40;;;;;;;239.95;32.63;;;6.70;99.90;;;;;;5999060;23;20074;-81
2022/12/23 08:17:06;;;;;;;337.52;36.97;;;6.70;99.90;;;;;;6000489;23;20043;-82
2022/12/23 08:19:31;;;;;;;197.85;30.35;;;6.80;99.90;;;;;;5999866;23;20329;-82
2022/12/23 08:21:57;;;;;;;232.57;30.83;;;6.80;99.90;;;;;;6023546;23;20021;-81
2022/12/23 08:24:23;;;;;;;247.50;33.30;;;6.80;99.90;;;;;;6000170;23;20054;-81
2022/12/23 08:26:48;;;;;;;277.63;31.00;;;6.90;99.90;;;;;;5999359;23;20280;-81
2022/12/23 08:29:14;;;;;;;172.73;31.38;;;6.90;99.90;;;;;;6000101;23;20024;-81
2022/12/23 08:31:40;;;;;;;178.23;26.27;;;6.80;99.90;;;;;;5998865;23;20468;-81
2022/12/23 08:34:06;;;;;;;147.50;27.58;;;6.90;99.90;;;;;;5999087;23;20434;-82
2022/12/23 08:36:34;;;;;;;96.10;24.17;;;6.80;99.90;;;;;;6024448;23;20030;-81
2022/12/23 08:39:02;;;;;;;237.85;28.77;;;6.80;99.90;;;;;;5999667;23;20314;-81
2022/12/23 08:41:31;;;;;;;89.70;23.02;;;6.80;99.90;;;;;;5999348;23;20034;-81
2022/12/23 08:43:57;;;;;;;241.98;27.40;;;6.80;99.90;;;;;;5999281;23;20880;-81
2022/12/23 08:46:23;;;;;;;281.50;30.15;;;6.80;99.90;;;;;;5997770;23;20058;-81
2022/12/23 08:48:49;;;;;;;297.95;27.60;;;6.80;99.90;;;;;;6000109;23;20449;-81
2022/12/23 08:51:17;;;;;;;336.83;31.95;;;6.80;99.90;;;;;;6023611;23;20023;-82
2022/12/23 08:53:43;;;;;;;386.77;37.78;;;6.80;99.90;;;;;;5998722;23;20619;-81
2022/12/23 08:56:17;;;;;;;414.23;38.50;;;6.80;99.90;;;;;;6023040;23;20528;-81
2022/12/23 08:58:45;;;;;;;307.42;29.55;;;6.90;99.90;;;;;;5997816;23;20158;-82
2022/12/23 09:01:13;;;;;;;193.23;30.02;;;6.90;99.90;;;;;;6020711;23;20020;-81
2022/12/23 09:03:40;;;;;;;254.55;30.75;;;7.00;99.90;;;;;;5999201;23;20026;-81
2022/12/23 09:06:08;;;;;;;285.77;28.77;;;7.00;99.90;;;;;;5999356;23;20019;-82
2022/12/23 09:08:34;;;;;;;282.55;31.60;;;7.10;99.90;;;;;;6022787;23;20023;-81
2022/12/23 09:11:00;;;;;;;393.52;40.20;;;7.10;99.90;;;;;;6022732;23;20099;-81
2022/12/23 09:13:26;;;;;;;237.50;28.27;;;7.00;99.90;;;;;;6021863;23;20023;-81
2022/12/23 09:15:52;;;;;;;212.55;25.05;;;7.10;99.90;;;;;;5997646;23;20022;-81
2022/12/23 09:18:18;;;;;;;196.73;23.55;;;7.10;99.90;;;;;;5997095;23;20023;-81
2022/12/23 09:20:43;;;;;;;181.55;23.35;;;7.20;99.90;;;;;;6022016;23;20326;-81
2022/12/23 09:23:09;;;;;;;179.07;25.70;;;7.20;99.90;;;;;;5999886;23;20019;-81
2022/12/23 09:25:36;;;;;;;215.32;28.23;;;7.20;99.90;;;;;;5997159;23;20094;-81
2022/12/23 09:28:02;;;;;;;225.50;27.70;;;7.20;99.90;;;;;;6019773;23;20015;-82
2022/12/23 09:30:28;;;;;;;127.35;25.60;;;7.20;99.90;;;;;;6017844;23;20023;-81
2022/12/23 09:32:54;;;;;;;115.75;25.75;;;7.30;99.90;;;;;;5997004;23;20034;-81
2022/12/23 09:35:24;;;;;;;203.32;26.33;;;7.30;99.90;;;;;;6000210;23;20062;-81
2022/12/23 09:37:50;;;;;;;164.18;24.80;;;7.40;99.90;;;;;;6023532;23;20055;-81
2022/12/23 09:40:18;;;;;;;155.15;24.48;;;7.40;99.90;;;;;;5999006;23;20396;-82
2022/12/23 09:43:13;;;;;;;115.97;22.23;;;7.40;99.90;;;;;;6022640;23;20058;-81
2022/12/23 09:45:54;;;;;;;69.30;19.83;;;7.50;99.90;;;;;;6021998;23;20019;-82
2022/12/23 09:48:25;;;;;;;148.23;26.27;;;7.50;99.90;;;;;;6021846;23;20244;-81
2022/12/23 09:50:51;;;;;;;149.25;24.27;;;7.50;99.90;;;;;;5999365;23;20020;-82
2022/12/23 09:53:25;;;;;;;206.38;27.58;;;7.70;99.90;;;;;;5998951;23;20015;-82
2022/12/23 09:56:27;;;;;;;138.35;23.92;;;7.70;99.90;;;;;;5999659;23;20388;-82
2022/12/23 09:59:34;;;;;;;103.80;23.40;;;7.90;99.90;;;;;;5914306;24;20183;-81
2022/12/23 10:02:38;;;;;;;74.80;20.85;;;8.00;99.90;;;;;;6011340;23;20019;-81
2022/12/23 10:05:34;;;;;;;56.90;19.60;;;8.00;99.90;;;;;;5975268;23;20263;-82
2022/12/23 10:08:14;;;;;;;55.10;18.75;;;8.00;99.90;;;;;;5975728;23;20020;-82
2022/12/23 10:10:47;;;;;;;64.32;19.58;;;7.80;99.90;;;;;;5976071;23;20114;-81
2022/12/23 10:13:35;;;;;;;56.88;19.95;;;7.90;99.90;;;;;;6000490;23;20011;-82
2022/12/23 10:16:13;;;;;;;43.78;16.75;;;7.90;99.90;;;;;;5975610;23;20026;-82
2022/12/23 10:18:49;;;;;;;43.00;16.80;;;7.90;99.90;;;;;;5975009;23;20108;-82
2022/12/23 10:21:26;;;;;;;42.40;17.02;;;7.90;99.90;;;;;;5974691;23;20031;-82
2022/12/23 10:23:54;;;;;;;49.60;17.92;;;7.90;99.90;;;;;;5998778;23;20097;-82
2022/12/23 10:27:03;;;;;;;48.85;17.42;;;8.00;99.90;;;;;;5997668;23;20015;-82
2022/12/23 10:29:33;;;;;;;42.05;17.67;;;8.00;99.90;;;;;;5942837;23;20083;-81
2022/12/23 10:32:01;;;;;;;51.83;18.85;;;8.10;99.90;;;;;;5974314;23;20015;-82
2022/12/23 10:35:12;;;;;;;46.80;18.02;;;8.20;99.90;;;;;;5998233;23;20200;-81
2022/12/23 10:37:51;;;;;;;48.88;19.17;;;8.20;99.90;;;;;;5976059;23;20030;-82
2022/12/23 10:41:07;;;;;;;53.00;19.25;;;8.20;99.90;;;;;;5997585;23;20699;-81
2022/12/23 10:43:59;;;;;;;45.78;16.92;;;8.20;99.90;;;;;;5884980;24;20021;-82
2022/12/23 10:46:43;;;;;;;57.63;19.60;;;8.30;99.90;;;;;;5862327;24;20025;-81
2022/12/23 10:49:23;;;;;;;59.80;19.65;;;8.30;99.90;;;;;;5980117;23;20055;-81
2022/12/23 10:51:56;;;;;;;71.32;21.73;;;8.30;99.90;;;;;;5975736;23;20027;-81
2022/12/23 10:54:24;;;;;;;66.25;21.35;;;8.30;99.90;;;;;;5997839;23;20124;-82
2022/12/23 10:56:50;;;;;;;58.80;21.52;;;8.10;99.90;;;;;;5973811;23;20013;-82
2022/12/23 10:59:24;;;;;;;60.05;21.92;;;8.10;99.90;;;;;;5975485;23;20605;-82
2022/12/23 11:01:56;;;;;;;77.83;22.47;;;8.10;99.90;;;;;;6007960;23;20074;-81
2022/12/23 11:04:36;;;;;;;64.88;21.17;;;8.10;99.90;;;;;;5997777;23;20027;-82
2022/12/23 11:07:02;;;;;;;59.50;20.50;;;8.10;99.90;;;;;;5998942;23;20098;-82
2022/12/23 11:09:40;;;;;;;61.20;21.30;;;8.10;99.90;;;;;;5998146;23;20051;-82
2022/12/23 11:12:09;;;;;;;55.90;21.00;;;8.10;99.90;;;;;;6021092;23;20182;-82
2022/12/23 11:14:50;;;;;;;73.10;22.23;;;8.10;99.90;;;;;;6020927;23;20057;-81
2022/12/23 11:17:27;;;;;;;66.82;21.25;;;8.10;99.90;;;;;;5997054;23;20081;-81
2022/12/23 11:20:22;;;;;;;64.55;21.52;;;8.10;99.90;;;;;;5996694;23;20081;-82
2022/12/23 11:22:58;;;;;;;74.03;21.92;;;8.20;99.90;;;;;;5975614;23;20021;-82
2022/12/23 11:25:37;;;;;;;85.72;21.67;;;8.30;99.90;;;;;;5998971;23;20022;-82
2022/12/23 11:28:09;;;;;;;74.57;20.67;;;8.30;99.90;;;;;;5999431;23;20023;-82
2022/12/23 11:30:53;;;;;;;60.60;19.13;;;8.30;99.90;;;;;;6022158;23;20564;-81
2022/12/23 11:33:30;;;;;;;59.05;18.63;;;8.40;99.90;;;;;;6021242;23;20508;-82
2022/12/23 11:36:23;;;;;;;45.97;18.42;;;8.40;99.90;;;;;;5998911;23;20023;-81
2022/12/23 11:38:52;;;;;;;38.40;16.33;;;8.40;99.90;;;;;;5988008;23;20019;-82
2022/12/23 11:41:21;;;;;;;41.13;17.17;;;8.50;99.90;;;;;;6022769;23;20290;-82
2022/12/23 11:44:10;;;;;;;38.53;16.00;;;8.40;99.90;;;;;;5998360;23;20269;-81
2022/12/23 11:46:35;;;;;;;36.83;16.13;;;8.50;99.90;;;;;;5996924;23;20019;-81
2022/12/23 11:49:20;;;;;;;36.33;15.82;;;8.50;99.90;;;;;;6022260;23;20018;-82
2022/12/23 11:52:13;;;;;;;37.97;16.15;;;8.50;99.90;;;;;;6022813;23;20077;-82
2022/12/23 11:54:39;;;;;;;32.83;14.23;;;8.40;99.90;;;;;;5999703;23;20019;-81
2022/12/23 11:57:17;;;;;;;37.10;15.43;;;8.50;99.90;;;;;;5998649;23;20021;-82
2022/12/23 11:59:50;;;;;;;34.72;15.10;;;8.50;99.90;;;;;;6021475;23;20026;-82
2022/12/23 12:02:38;;;;;;;31.63;16.13;;;8.50;99.90;;;;;;5984646;23;20166;-82
2022/12/23 12:05:25;;;;;;;31.05;14.45;;;8.40;99.90;;;;;;5975386;23;20030;-81
2022/12/23 12:07:53;;;;;;;36.33;15.32;;;8.50;99.90;;;;;;6000637;23;20607;-82
2022/12/23 12:10:27;;;;;;;33.55;15.10;;;8.40;99.90;;;;;;5975082;23;20043;-82
2022/12/23 12:13:01;;;;;;;33.75;15.48;;;8.40;99.90;;;;;;5974979;23;20015;-82
2022/12/23 12:15:53;;;;;;;35.58;14.95;;;8.30;99.90;;;;;;5973981;23;20015;-81
2022/12/23 12:18:21;;;;;;;29.27;13.70;;;8.40;99.90;;;;;;5973486;23;20057;-82
2022/12/23 12:20:54;;;;;;;29.13;13.63;;;8.40;99.90;;;;;;5997922;23;20081;-82
2022/12/23 12:23:28;;;;;;;28.27;14.18;;;8.40;99.90;;;;;;5975018;23;20098;-82
2022/12/23 12:25:59;;;;;;;27.48;14.25;;;8.50;99.90;;;;;;5997394;23;20034;-81
2022/12/23 12:28:35;;;;;;;27.88;13.88;;;8.50;99.90;;;;;;5998826;23;20418;-82
2022/12/23 12:31:22;;;;;;;30.33;14.68;;;8.50;99.90;;;;;;5975154;23;20109;-82
2022/12/23 12:34:10;;;;;;;30.88;14.32;;;8.50;99.90;;;;;;5999250;23;20011;-81
2022/12/23 12:36:58;;;;;;;30.70;13.88;;;8.50;99.90;;;;;;5963649;23;20544;-82
2022/12/23 12:39:55;;;;;;;30.00;15.38;;;8.50;99.90;;;;;;5998469;23;20054;-82
2022/12/23 12:42:38;;;;;;;32.80;14.00;;;8.50;99.90;;;;;;5998268;23;20031;-81
2022/12/23 12:45:16;;;;;;;26.95;13.80;;;8.50;99.90;;;;;;5997206;23;20054;-80
2022/12/23 12:47:45;;;;;;;30.88;13.68;;;8.50;99.90;;;;;;5973601;23;20019;-82
2022/12/23 12:50:31;;;;;;;32.15;14.45;;;8.40;99.90;;;;;;5999606;23;20031;-82
2022/12/23 12:53:09;;;;;;;33.13;14.07;;;8.40;99.90;;;;;;5999712;23;20011;-82
2022/12/23 12:55:41;;;;;;;27.98;13.10;;;8.40;99.90;;;;;;5975577;23;20097;-82
2022/12/23 12:58:17;;;;;;;27.58;13.07;;;8.40;99.90;;;;;;5975717;23;20015;-82
2022/12/23 13:01:02;;;;;;;30.67;12.38;;;8.40;99.90;;;;;;5998040;23;20122;-82
2022/12/23 13:03:40;;;;;;;23.67;12.50;;;8.40;99.90;;;;;;5998120;23;20172;-82
2022/12/23 13:06:26;;;;;;;26.67;13.23;;;8.40;99.90;;;;;;5998889;23;20570;-82
2022/12/23 13:09:29;;;;;;;29.40;12.45;;;8.40;99.90;;;;;;6022658;23;20023;-81
2022/12/23 13:12:13;;;;;;;27.10;11.70;;;8.30;99.90;;;;;;5999436;23;20061;-83
2022/12/23 13:15:01;;;;;;;24.75;11.40;;;8.30;99.90;;;;;;5997882;23;20069;-82
2022/12/23 13:17:50;;;;;;;30.05;11.63;;;8.30;99.90;;;;;;5974423;23;20509;-82
2022/12/23 13:20:25;;;;;;;25.02;11.57;;;8.40;99.90;;;;;;6000020;23;20347;-82
2022/12/23 13:23:01;;;;;;;29.40;12.27;;;8.30;99.90;;;;;;5998577;23;20166;-82
2022/12/23 13:25:37;;;;;;;30.05;12.55;;;8.40;99.90;;;;;;5976417;23;20487;-82
2022/12/23 13:28:32;;;;;;;26.13;11.75;;;8.30;99.90;;;;;;5976390;23;20022;-82